Time;durP1;ratioP1;P1;durP2;ratioP2;P2;SDS_P1;SDS_P2;PMS_P1;PMS_P2;Temp;Humidity;BMP_temperature;BMP_pressure;BME280_temperature;BME280_humidity;BME280_pressure;Samples;Min_cycle;Max_cycle;Signal;HPM_P1;HPM_P2
2023/12/24 00:00:31;;;;;;;25.88;5.55;;;;;;;;;;4984216;28;20604;-81
2023/12/24 00:02:57;;;;;;;18.27;4.65;;;;;;;;;;4992761;28;20058;-81
2023/12/24 00:05:23;;;;;;;24.45;5.82;;;;;;;;;;4985861;28;20177;-79
2023/12/24 00:07:49;;;;;;;26.33;5.05;;;;;;;;;;4981081;28;20485;-78
2023/12/24 00:10:18;;;;;;;26.65;5.05;;;;;;;;;;5001530;28;20467;-78
2023/12/24 00:12:44;;;;;;;28.55;6.50;;;;;;;;;;4987434;28;20046;-78
2023/12/24 00:15:10;;;;;;;25.95;5.70;;;;;;;;;;4983019;28;20053;-80
2023/12/24 00:17:36;;;;;;;27.25;5.88;;;;;;;;;;4986533;28;20486;-79
2023/12/24 00:20:03;;;;;;;29.95;6.05;;;;;;;;;;4977425;28;20137;-80
2023/12/24 00:22:29;;;;;;;22.05;5.32;;;;;;;;;;4990013;28;20054;-81
2023/12/24 00:24:55;;;;;;;22.23;5.00;;;;;;;;;;4988629;28;20061;-80
2023/12/24 00:27:21;;;;;;;24.73;5.72;;;;;;;;;;4989546;28;20106;-80
2023/12/24 00:29:47;;;;;;;18.63;4.40;;;;;;;;;;4988911;28;20046;-79
2023/12/24 00:32:14;;;;;;;24.80;5.88;;;;;;;;;;4983346;28;20141;-79
2023/12/24 00:34:40;;;;;;;20.48;4.35;;;;;;;;;;4981307;28;20049;-79
2023/12/24 00:37:06;;;;;;;22.13;5.35;;;;;;;;;;4981049;28;20096;-80
2023/12/24 00:39:32;;;;;;;26.27;6.28;;;;;;;;;;5008520;28;20053;-79
2023/12/24 00:41:58;;;;;;;31.08;6.15;;;;;;;;;;4995587;28;20042;-80
2023/12/24 00:44:24;;;;;;;24.40;5.82;;;;;;;;;;4991210;28;20084;-79
2023/12/24 00:46:51;;;;;;;27.45;6.68;;;;;;;;;;4998998;28;20050;-80
2023/12/24 00:49:17;;;;;;;32.22;6.30;;;;;;;;;;4999459;28;20054;-80
2023/12/24 00:51:43;;;;;;;22.48;5.65;;;;;;;;;;4991908;28;20052;-80
2023/12/24 00:54:10;;;;;;;27.63;5.80;;;;;;;;;;4989125;28;20177;-80
2023/12/24 00:56:36;;;;;;;26.00;6.15;;;;;;;;;;4986361;28;20042;-80
2023/12/24 00:59:02;;;;;;;11.70;3.55;;;;;;;;;;4990053;28;20050;-79
2023/12/24 01:01:28;;;;;;;19.25;4.80;;;;;;;;;;4991939;28;20509;-79
2023/12/24 01:03:54;;;;;;;18.50;5.60;;;;;;;;;;4992275;28;20062;-80
2023/12/24 01:06:20;;;;;;;20.88;4.75;;;;;;;;;;4995752;28;20057;-80
2023/12/24 01:08:46;;;;;;;28.40;6.05;;;;;;;;;;4985626;28;20060;-80
2023/12/24 01:11:12;;;;;;;25.48;6.43;;;;;;;;;;4985547;28;20046;-80
2023/12/24 01:13:39;;;;;;;14.45;4.15;;;;;;;;;;4988074;28;20060;-80
2023/12/24 01:16:05;;;;;;;21.33;5.35;;;;;;;;;;4986126;28;20116;-80
2023/12/24 01:18:31;;;;;;;24.55;5.32;;;;;;;;;;4986730;28;20044;-80
2023/12/24 01:20:57;;;;;;;23.88;5.90;;;;;;;;;;4986392;28;20046;-80
2023/12/24 01:23:23;;;;;;;18.50;4.72;;;;;;;;;;4988625;28;20073;-80
2023/12/24 01:25:49;;;;;;;23.63;4.88;;;;;;;;;;4984903;28;20061;-80
2023/12/24 01:28:24;;;;;;;20.75;5.47;;;;;;;;;;4986196;28;20045;-80
2023/12/24 01:30:52;;;;;;;17.75;4.38;;;;;;;;;;4987707;28;20119;-80
2023/12/24 01:33:20;;;;;;;21.20;5.60;;;;;;;;;;4987958;28;20071;-80
2023/12/24 01:35:47;;;;;;;17.35;4.15;;;;;;;;;;4993948;28;20128;-79
2023/12/24 01:38:13;;;;;;;25.50;5.20;;;;;;;;;;4993532;28;20053;-79
2023/12/24 01:40:44;;;;;;;15.55;4.07;;;;;;;;;;5001008;28;20038;-79
2023/12/24 01:43:10;;;;;;;18.15;4.95;;;;;;;;;;4984275;28;20050;-79
2023/12/24 01:45:36;;;;;;;28.92;5.88;;;;;;;;;;4984500;28;20686;-80
2023/12/24 01:48:02;;;;;;;24.05;4.85;;;;;;;;;;4985413;28;20049;-80
2023/12/24 01:50:29;;;;;;;22.50;4.95;;;;;;;;;;4990876;28;20081;-79
2023/12/24 01:52:55;;;;;;;20.17;5.18;;;;;;;;;;5009216;28;20034;-80
2023/12/24 01:55:21;;;;;;;23.67;5.32;;;;;;;;;;4994579;28;20045;-79
2023/12/24 01:57:47;;;;;;;22.92;4.18;;;;;;;;;;4990093;28;20060;-79
2023/12/24 02:00:13;;;;;;;25.48;5.38;;;;;;;;;;5001087;28;20046;-80
2023/12/24 02:02:40;;;;;;;18.98;4.88;;;;;;;;;;4992123;28;20060;-80
2023/12/24 02:05:06;;;;;;;31.52;6.10;;;;;;;;;;4987769;28;20052;-79
2023/12/24 02:07:34;;;;;;;22.85;5.00;;;;;;;;;;4985867;28;20046;-80
2023/12/24 02:10:01;;;;;;;24.63;4.97;;;;;;;;;;4989233;28;20509;-79
2023/12/24 02:12:27;;;;;;;13.43;4.65;;;;;;;;;;4986298;28;20518;-80
2023/12/24 02:14:53;;;;;;;18.00;4.65;;;;;;;;;;4984743;28;20406;-79
2023/12/24 02:17:19;;;;;;;15.13;3.95;;;;;;;;;;5008968;28;20380;-79
2023/12/24 02:19:45;;;;;;;28.90;6.30;;;;;;;;;;4985381;28;20137;-80
2023/12/24 02:22:11;;;;;;;26.83;5.45;;;;;;;;;;4983261;28;20046;-79
2023/12/24 02:24:37;;;;;;;18.98;4.35;;;;;;;;;;4985581;28;20076;-80
2023/12/24 02:27:25;;;;;;;25.85;5.55;;;;;;;;;;5003873;28;20049;-79
2023/12/24 02:29:54;;;;;;;19.73;4.72;;;;;;;;;;4983756;28;20041;-80
2023/12/24 02:32:21;;;;;;;16.77;4.10;;;;;;;;;;4984282;28;20192;-80
2023/12/24 02:34:48;;;;;;;19.60;3.83;;;;;;;;;;4984285;28;20112;-79
2023/12/24 02:37:14;;;;;;;22.40;5.13;;;;;;;;;;4985514;28;20053;-80
2023/12/24 02:39:41;;;;;;;15.73;4.20;;;;;;;;;;4990251;28;20053;-79
2023/12/24 02:42:07;;;;;;;22.23;5.00;;;;;;;;;;4989026;28;20100;-80
2023/12/24 02:44:34;;;;;;;22.42;4.65;;;;;;;;;;4977632;28;20115;-79
2023/12/24 02:47:00;;;;;;;21.83;4.75;;;;;;;;;;4995444;28;20045;-80
2023/12/24 02:49:26;;;;;;;21.60;4.20;;;;;;;;;;4993915;28;20060;-80
2023/12/24 02:51:52;;;;;;;17.25;3.92;;;;;;;;;;4989651;28;20046;-80
2023/12/24 02:54:18;;;;;;;15.15;4.68;;;;;;;;;;4991287;28;20050;-79
2023/12/24 02:56:44;;;;;;;23.25;4.80;;;;;;;;;;4980390;28;20494;-79
2023/12/24 02:59:10;;;;;;;15.43;4.53;;;;;;;;;;5009071;28;20046;-79
2023/12/24 03:01:36;;;;;;;9.95;2.97;;;;;;;;;;4985726;28;20046;-80
2023/12/24 03:04:04;;;;;;;19.80;4.28;;;;;;;;;;4991228;28;20474;-80
2023/12/24 03:06:30;;;;;;;25.98;4.65;;;;;;;;;;5006638;28;20422;-80
2023/12/24 03:08:56;;;;;;;16.75;4.03;;;;;;;;;;4982903;28;20053;-80
2023/12/24 03:11:22;;;;;;;11.95;3.85;;;;;;;;;;5008597;28;20045;-80
2023/12/24 03:13:48;;;;;;;24.13;4.70;;;;;;;;;;4990003;28;20046;-80
2023/12/24 03:16:15;;;;;;;17.52;3.60;;;;;;;;;;4984729;28;20049;-80
2023/12/24 03:18:41;;;;;;;11.82;3.80;;;;;;;;;;4984900;28;24771;-80
2023/12/24 03:21:07;;;;;;;14.93;4.30;;;;;;;;;;4986636;28;20505;-80
2023/12/24 03:23:33;;;;;;;12.73;3.80;;;;;;;;;;4990148;28;20042;-80
2023/12/24 03:25:59;;;;;;;18.77;4.97;;;;;;;;;;4991191;28;20133;-81
2023/12/24 03:28:25;;;;;;;14.73;4.45;;;;;;;;;;4992110;28;20405;-80
2023/12/24 03:30:51;;;;;;;13.80;4.70;;;;;;;;;;4991571;28;20099;-80
2023/12/24 03:33:17;;;;;;;27.45;5.10;;;;;;;;;;4990532;28;20438;-80
2023/12/24 03:35:43;;;;;;;17.48;4.55;;;;;;;;;;4988858;28;20047;-80
2023/12/24 03:38:10;;;;;;;27.83;6.13;;;;;;;;;;4987627;28;20508;-80
2023/12/24 03:40:36;;;;;;;19.35;4.97;;;;;;;;;;4993721;28;20046;-79
2023/12/24 03:43:02;;;;;;;19.65;5.30;;;;;;;;;;4989580;28;20240;-80
2023/12/24 03:45:29;;;;;;;18.58;5.55;;;;;;;;;;4978033;28;21050;-80
2023/12/24 03:47:55;;;;;;;23.33;5.00;;;;;;;;;;4985245;28;20077;-80
2023/12/24 03:50:21;;;;;;;20.17;4.65;;;;;;;;;;4989592;28;20104;-80
2023/12/24 03:52:59;;;;;;;24.27;5.00;;;;;;;;;;4982012;28;20188;-79
2023/12/24 03:55:28;;;;;;;17.50;5.68;;;;;;;;;;4982236;28;20043;-80
2023/12/24 03:57:54;;;;;;;27.33;5.03;;;;;;;;;;4982218;28;20121;-80
2023/12/24 04:00:20;;;;;;;31.45;6.35;;;;;;;;;;4990762;28;20861;-79
2023/12/24 04:02:47;;;;;;;15.90;4.43;;;;;;;;;;4998380;28;20478;-80
2023/12/24 04:05:13;;;;;;;20.83;4.85;;;;;;;;;;4993110;28;20046;-80
2023/12/24 04:07:39;;;;;;;24.20;5.53;;;;;;;;;;5004888;28;20057;-80
2023/12/24 04:10:06;;;;;;;28.13;4.75;;;;;;;;;;5005069;28;20080;-80
2023/12/24 04:12:31;;;;;;;25.05;5.90;;;;;;;;;;4982878;28;20042;-80
2023/12/24 04:14:58;;;;;;;17.45;4.47;;;;;;;;;;4981557;28;20050;-80
2023/12/24 04:17:24;;;;;;;38.92;7.40;;;;;;;;;;5005435;28;20054;-80
2023/12/24 04:19:50;;;;;;;34.55;5.78;;;;;;;;;;5001286;28;20478;-80
2023/12/24 04:22:16;;;;;;;26.20;5.90;;;;;;;;;;4983688;28;20125;-80
2023/12/24 04:24:41;;;;;;;37.00;6.30;;;;;;;;;;4983876;28;20049;-80
2023/12/24 04:27:07;;;;;;;22.25;5.63;;;;;;;;;;4984434;28;20045;-79
2023/12/24 04:29:33;;;;;;;27.20;5.65;;;;;;;;;;4984503;28;20057;-80
2023/12/24 04:31:59;;;;;;;16.50;4.50;;;;;;;;;;4982561;28;20046;-80
2023/12/24 04:34:25;;;;;;;23.70;5.20;;;;;;;;;;4983216;28;20698;-80
2023/12/24 04:36:53;;;;;;;22.45;5.47;;;;;;;;;;4985058;28;20047;-80
2023/12/24 04:39:19;;;;;;;19.25;5.22;;;;;;;;;;4989466;28;20054;-80
2023/12/24 04:41:45;;;;;;;29.70;6.30;;;;;;;;;;4991554;28;20176;-80
2023/12/24 04:44:11;;;;;;;27.60;7.28;;;;;;;;;;4991236;28;20042;-80
2023/12/24 04:46:45;;;;;;;28.95;5.90;;;;;;;;;;4988348;28;20053;-80
2023/12/24 04:49:11;;;;;;;27.55;5.43;;;;;;;;;;4986196;28;20064;-80
2023/12/24 04:51:37;;;;;;;25.75;5.78;;;;;;;;;;4991387;28;20061;-80
2023/12/24 04:54:04;;;;;;;33.08;6.93;;;;;;;;;;5005771;28;20121;-80
2023/12/24 04:56:31;;;;;;;39.80;6.18;;;;;;;;;;5005090;28;20042;-80
2023/12/24 04:58:57;;;;;;;24.00;5.65;;;;;;;;;;4989072;28;20141;-80
2023/12/24 05:01:23;;;;;;;26.02;5.43;;;;;;;;;;4985759;28;20137;-80
2023/12/24 05:03:49;;;;;;;16.25;4.78;;;;;;;;;;4985413;28;20056;-80
2023/12/24 05:06:15;;;;;;;26.98;5.25;;;;;;;;;;4990560;28;20058;-80
2023/12/24 05:08:41;;;;;;;38.08;7.00;;;;;;;;;;4984561;28;20055;-79
2023/12/24 05:11:08;;;;;;;26.30;5.03;;;;;;;;;;4978017;28;20102;-80
2023/12/24 05:13:35;;;;;;;27.30;5.15;;;;;;;;;;4991250;28;20058;-80
2023/12/24 05:16:02;;;;;;;25.58;4.68;;;;;;;;;;4984259;28;20178;-80
2023/12/24 05:18:28;;;;;;;19.20;5.53;;;;;;;;;;4985872;28;20046;-79
2023/12/24 05:20:54;;;;;;;19.52;5.05;;;;;;;;;;4989216;28;20502;-80
2023/12/24 05:23:21;;;;;;;23.92;5.57;;;;;;;;;;5006924;28;20097;-80
2023/12/24 05:25:47;;;;;;;25.65;5.60;;;;;;;;;;4992769;28;20057;-80
2023/12/24 05:28:14;;;;;;;39.65;6.85;;;;;;;;;;4986693;28;20168;-80
2023/12/24 05:30:39;;;;;;;28.73;6.30;;;;;;;;;;5006165;28;20054;-80
2023/12/24 05:33:05;;;;;;;34.72;6.28;;;;;;;;;;4991593;28;20046;-79
2023/12/24 05:35:31;;;;;;;29.17;6.10;;;;;;;;;;4988519;28;20046;-80
2023/12/24 05:37:58;;;;;;;24.33;5.38;;;;;;;;;;4980754;28;20049;-79
2023/12/24 05:40:24;;;;;;;19.60;4.88;;;;;;;;;;4989558;28;20050;-79
2023/12/24 05:42:50;;;;;;;24.98;4.70;;;;;;;;;;5010489;28;20481;-80
2023/12/24 05:45:15;;;;;;;22.85;5.70;;;;;;;;;;4988274;28;20555;-80
2023/12/24 05:47:41;;;;;;;27.08;5.35;;;;;;;;;;4987219;28;20045;-80
2023/12/24 05:50:10;;;;;;;24.55;5.63;;;;;;;;;;4994425;28;20049;-79
2023/12/24 05:52:37;;;;;;;20.27;5.07;;;;;;;;;;4992276;28;20042;-79
2023/12/24 05:55:04;;;;;;;19.42;5.05;;;;;;;;;;4994925;28;20456;-79
2023/12/24 05:57:30;;;;;;;23.13;6.15;;;;;;;;;;4993395;28;20130;-79
2023/12/24 05:59:57;;;;;;;26.38;5.18;;;;;;;;;;4990405;28;20133;-79
2023/12/24 06:02:22;;;;;;;27.20;4.95;;;;;;;;;;4990733;28;20096;-79
2023/12/24 06:04:49;;;;;;;14.00;4.35;;;;;;;;;;4989900;28;20050;-80
2023/12/24 06:07:15;;;;;;;25.48;5.60;;;;;;;;;;4983488;28;20056;-80
2023/12/24 06:09:40;;;;;;;26.17;5.65;;;;;;;;;;4987534;28;20049;-79
2023/12/24 06:12:07;;;;;;;20.45;4.80;;;;;;;;;;4988131;28;20442;-79
2023/12/24 06:14:33;;;;;;;21.83;4.55;;;;;;;;;;4989283;28;20047;-79
2023/12/24 06:16:59;;;;;;;19.00;4.85;;;;;;;;;;4988073;28;20068;-80
2023/12/24 06:19:25;;;;;;;25.27;5.18;;;;;;;;;;4992016;28;20129;-79
2023/12/24 06:21:52;;;;;;;22.02;6.00;;;;;;;;;;4998642;28;20129;-79
2023/12/24 06:24:20;;;;;;;26.83;4.65;;;;;;;;;;5012758;28;20107;-79
2023/12/24 06:26:47;;;;;;;24.35;4.43;;;;;;;;;;4991556;28;20550;-79
2023/12/24 06:29:13;;;;;;;23.50;5.35;;;;;;;;;;4982323;28;20054;-79
2023/12/24 06:31:39;;;;;;;29.50;6.13;;;;;;;;;;4992531;28;20042;-80
2023/12/24 06:34:05;;;;;;;26.92;5.22;;;;;;;;;;4990260;28;20522;-79
2023/12/24 06:36:31;;;;;;;18.08;3.97;;;;;;;;;;4977388;28;20498;-80
2023/12/24 06:38:57;;;;;;;23.55;5.00;;;;;;;;;;4994092;28;20038;-79
2023/12/24 06:41:23;;;;;;;28.02;4.93;;;;;;;;;;4987726;28;20099;-79
2023/12/24 06:43:50;;;;;;;24.85;5.00;;;;;;;;;;4989944;28;20060;-79
2023/12/24 06:46:16;;;;;;;20.45;5.60;;;;;;;;;;4988625;28;20046;-79
2023/12/24 06:48:42;;;;;;;20.83;5.22;;;;;;;;;;4987636;28;20390;-79
2023/12/24 06:51:08;;;;;;;26.20;5.13;;;;;;;;;;4994921;28;20053;-79
2023/12/24 06:53:34;;;;;;;22.08;4.70;;;;;;;;;;4993677;28;20045;-80
2023/12/24 06:56:00;;;;;;;22.25;5.75;;;;;;;;;;4993071;28;20053;-79
2023/12/24 06:58:26;;;;;;;26.10;5.88;;;;;;;;;;4980834;28;20062;-79
2023/12/24 07:00:55;;;;;;;18.45;5.00;;;;;;;;;;4995167;28;20141;-79
2023/12/24 07:03:21;;;;;;;22.02;5.10;;;;;;;;;;4985395;28;20074;-79
2023/12/24 07:05:47;;;;;;;27.05;5.20;;;;;;;;;;4980550;28;20133;-78
2023/12/24 07:08:13;;;;;;;24.40;4.93;;;;;;;;;;5010707;28;20068;-79
2023/12/24 07:10:42;;;;;;;23.60;6.10;;;;;;;;;;4999834;28;20050;-79
2023/12/24 07:13:08;;;;;;;27.58;5.55;;;;;;;;;;5004047;28;20069;-79
2023/12/24 07:15:38;;;;;;;19.52;5.05;;;;;;;;;;5012356;28;20037;-79
2023/12/24 07:18:05;;;;;;;23.05;5.85;;;;;;;;;;4998850;28;20049;-79
2023/12/24 07:20:31;;;;;;;23.20;4.53;;;;;;;;;;5028168;28;20044;-79
2023/12/24 07:22:57;;;;;;;22.52;4.75;;;;;;;;;;5007119;28;20056;-79
2023/12/24 07:25:23;;;;;;;23.30;5.45;;;;;;;;;;5003982;28;20049;-79
2023/12/24 07:27:49;;;;;;;20.73;6.47;;;;;;;;;;5004356;28;20057;-79
2023/12/24 07:30:15;;;;;;;22.02;5.47;;;;;;;;;;5000743;28;20045;-79
2023/12/24 07:32:45;;;;;;;25.55;6.45;;;;;;;;;;5009438;28;20055;-79
2023/12/24 07:35:11;;;;;;;26.27;5.45;;;;;;;;;;5007786;28;20041;-79
2023/12/24 07:37:37;;;;;;;29.15;6.35;;;;;;;;;;5010866;28;20124;-79
2023/12/24 07:40:03;;;;;;;20.73;5.40;;;;;;;;;;5023890;28;20536;-79
2023/12/24 07:42:29;;;;;;;32.60;6.88;;;;;;;;;;5012185;28;20053;-80
2023/12/24 07:44:55;;;;;;;29.27;6.35;;;;;;;;;;5000008;28;20160;-79
2023/12/24 07:47:21;;;;;;;24.25;6.35;;;;;;;;;;5004155;28;20140;-79
2023/12/24 07:49:47;;;;;;;24.33;6.70;;;;;;;;;;5012540;28;20478;-79
2023/12/24 07:52:14;;;;;;;34.85;7.43;;;;;;;;;;5028803;28;20056;-78
2023/12/24 07:54:40;;;;;;;21.83;5.00;;;;;;;;;;5026116;28;20092;-78
2023/12/24 07:57:06;;;;;;;26.58;5.20;;;;;;;;;;5008411;28;20095;-79
2023/12/24 07:59:32;;;;;;;26.42;5.25;;;;;;;;;;5009901;28;20049;-79
2023/12/24 08:01:58;;;;;;;28.08;5.63;;;;;;;;;;5003195;28;20041;-78
2023/12/24 08:04:24;;;;;;;26.45;6.03;;;;;;;;;;5002963;28;20111;-79
2023/12/24 08:06:51;;;;;;;24.80;5.90;;;;;;;;;;5009789;28;20504;-78
2023/12/24 08:09:17;;;;;;;20.00;5.07;;;;;;;;;;5011699;28;20076;-79
2023/12/24 08:11:43;;;;;;;22.55;4.90;;;;;;;;;;4998316;28;20572;-78
2023/12/24 08:14:09;;;;;;;19.38;4.93;;;;;;;;;;5008457;28;20440;-79
2023/12/24 08:16:35;;;;;;;28.48;6.88;;;;;;;;;;5019639;28;20183;-79
2023/12/24 08:19:02;;;;;;;28.15;5.75;;;;;;;;;;5006947;28;20045;-80
2023/12/24 08:21:28;;;;;;;21.17;4.57;;;;;;;;;;4999660;28;20040;-79
2023/12/24 08:23:54;;;;;;;27.00;5.68;;;;;;;;;;5007215;28;20050;-80
2023/12/24 08:26:20;;;;;;;24.30;5.45;;;;;;;;;;5005066;28;20041;-82
2023/12/24 08:28:46;;;;;;;15.52;4.30;;;;;;;;;;5005898;28;20037;-81
2023/12/24 08:31:13;;;;;;;20.85;4.93;;;;;;;;;;5002972;28;20092;-79
2023/12/24 08:33:39;;;;;;;13.20;3.70;;;;;;;;;;5008672;28;20460;-82
2023/12/24 08:36:06;;;;;;;29.55;6.47;;;;;;;;;;5013557;28;20085;-81
2023/12/24 08:38:32;;;;;;;28.20;5.40;;;;;;;;;;5009457;28;20112;-80
2023/12/24 08:40:59;;;;;;;29.48;5.95;;;;;;;;;;5011432;28;20050;-80
2023/12/24 08:43:25;;;;;;;21.25;4.93;;;;;;;;;;5009841;28;20125;-80
2023/12/24 08:45:51;;;;;;;26.45;5.55;;;;;;;;;;5009711;28;20179;-80
2023/12/24 08:48:17;;;;;;;18.27;5.30;;;;;;;;;;4998899;28;20060;-80
2023/12/24 08:50:43;;;;;;;24.80;6.30;;;;;;;;;;5000413;28;20046;-81
2023/12/24 08:53:09;;;;;;;18.20;4.07;;;;;;;;;;4996512;28;20046;-80
2023/12/24 08:55:35;;;;;;;27.55;6.60;;;;;;;;;;5006630;28;20060;-78
2023/12/24 08:58:01;;;;;;;19.20;4.55;;;;;;;;;;5009559;28;20057;-81
2023/12/24 09:00:27;;;;;;;21.55;5.30;;;;;;;;;;5007146;28;20045;-79
2023/12/24 09:02:53;;;;;;;25.27;6.03;;;;;;;;;;5010345;28;20053;-80
2023/12/24 09:05:19;;;;;;;26.80;5.97;;;;;;;;;;5012795;28;20057;-80
2023/12/24 09:07:45;;;;;;;19.92;4.63;;;;;;;;;;5008075;28;20057;-80
2023/12/24 09:10:12;;;;;;;18.30;4.95;;;;;;;;;;5028859;28;20045;-80
2023/12/24 09:12:38;;;;;;;21.60;5.78;;;;;;;;;;5011636;28;20037;-81
2023/12/24 09:15:04;;;;;;;24.42;5.40;;;;;;;;;;5006329;28;21837;-80
2023/12/24 09:17:30;;;;;;;17.58;4.32;;;;;;;;;;5009597;28;20048;-80
2023/12/24 09:19:56;;;;;;;21.83;5.15;;;;;;;;;;5014020;28;20045;-80
2023/12/24 09:22:23;;;;;;;26.85;8.52;;;;;;;;;;5012118;28;20133;-81
2023/12/24 09:24:49;;;;;;;16.63;5.30;;;;;;;;;;5002276;28;20904;-80
2023/12/24 09:27:15;;;;;;;25.95;5.53;;;;;;;;;;5013583;28;20166;-84
2023/12/24 09:29:41;;;;;;;28.98;5.55;;;;;;;;;;5007442;28;20050;-80
2023/12/24 09:32:07;;;;;;;19.33;4.78;;;;;;;;;;5006526;28;20056;-79
2023/12/24 09:34:33;;;;;;;24.92;4.53;;;;;;;;;;5006783;28;20486;-79
2023/12/24 09:36:59;;;;;;;16.98;4.85;;;;;;;;;;5011486;28;20053;-82
2023/12/24 09:39:25;;;;;;;22.95;5.50;;;;;;;;;;5013935;28;20038;-85
2023/12/24 09:41:53;;;;;;;25.15;5.63;;;;;;;;;;5018905;28;20132;-75
2023/12/24 09:44:19;;;;;;;16.88;4.53;;;;;;;;;;5003588;28;20108;-82
2023/12/24 09:46:45;;;;;;;16.58;4.47;;;;;;;;;;4998582;28;20049;-84
2023/12/24 09:49:11;;;;;;;21.45;5.40;;;;;;;;;;5004856;28;20540;-80
2023/12/24 09:51:39;;;;;;;22.67;5.38;;;;;;;;;;5011698;28;20053;-80
2023/12/24 09:54:05;;;;;;;23.13;5.55;;;;;;;;;;5008460;28;20049;-81
2023/12/24 09:56:31;;;;;;;19.95;5.65;;;;;;;;;;5029908;28;20049;-80
2023/12/24 09:59:00;;;;;;;24.40;4.97;;;;;;;;;;5006251;28;20498;-79
2023/12/24 10:01:26;;;;;;;19.13;4.90;;;;;;;;;;5007709;28;20111;-78
2023/12/24 10:03:52;;;;;;;20.38;4.40;;;;;;;;;;5000977;28;20041;-77
2023/12/24 10:06:18;;;;;;;21.13;5.20;;;;;;;;;;5018148;28;20184;-77
2023/12/24 10:08:44;;;;;;;22.25;4.50;;;;;;;;;;5004384;28;20413;-77
2023/12/24 10:11:15;;;;;;;21.33;6.72;;;;;;;;;;4984019;28;20041;-77
2023/12/24 10:13:41;;;;;;;23.55;4.85;;;;;;;;;;4981541;28;20420;-77
2023/12/24 10:16:09;;;;;;;28.67;6.22;;;;;;;;;;4986502;28;20128;-77
2023/12/24 10:18:35;;;;;;;21.88;4.68;;;;;;;;;;4988090;28;20112;-77
2023/12/24 10:21:05;;;;;;;19.83;4.70;;;;;;;;;;5004790;28;20053;-77
2023/12/24 10:23:31;;;;;;;19.70;4.93;;;;;;;;;;4985822;28;20041;-78
2023/12/24 10:26:08;;;;;;;26.27;5.85;;;;;;;;;;4987499;28;20401;-77
2023/12/24 10:28:34;;;;;;;20.48;4.57;;;;;;;;;;4983900;28;20053;-77
2023/12/24 10:31:08;;;;;;;21.08;5.28;;;;;;;;;;5000831;28;20037;-77
2023/12/24 10:33:34;;;;;;;21.38;4.63;;;;;;;;;;5000078;28;20498;-77
2023/12/24 10:36:00;;;;;;;25.13;5.88;;;;;;;;;;4984051;28;20038;-77
2023/12/24 10:38:30;;;;;;;23.00;5.10;;;;;;;;;;4984851;28;20072;-77
2023/12/24 10:40:56;;;;;;;14.45;4.05;;;;;;;;;;4985136;28;20525;-77
2023/12/24 10:43:22;;;;;;;25.08;6.20;;;;;;;;;;4984682;28;20498;-77
2023/12/24 10:45:48;;;;;;;23.98;6.70;;;;;;;;;;5004832;28;20060;-77
2023/12/24 10:48:14;;;;;;;24.00;5.53;;;;;;;;;;5010405;28;20045;-77
2023/12/24 10:50:41;;;;;;;28.02;6.18;;;;;;;;;;4988210;28;20061;-77
2023/12/24 10:53:07;;;;;;;16.85;4.90;;;;;;;;;;4989489;28;20045;-77
2023/12/24 10:55:34;;;;;;;25.38;6.68;;;;;;;;;;4986817;28;20092;-77
2023/12/24 10:58:00;;;;;;;24.42;6.00;;;;;;;;;;4992820;28;20049;-76
2023/12/24 11:00:27;;;;;;;40.78;12.80;;;;;;;;;;4992183;28;20041;-77
2023/12/24 11:02:53;;;;;;;21.10;5.60;;;;;;;;;;4991722;28;20058;-77
2023/12/24 11:05:38;;;;;;;21.33;6.93;;;;;;;;;;4983704;28;20049;-77
2023/12/24 11:08:04;;;;;;;23.02;4.70;;;;;;;;;;4989067;28;20117;-76
2023/12/24 11:10:38;;;;;;;17.08;4.45;;;;;;;;;;4988641;28;20050;-77
2023/12/24 11:13:07;;;;;;;20.00;4.68;;;;;;;;;;5011651;28;20049;-77
2023/12/24 11:15:40;;;;;;;17.65;4.80;;;;;;;;;;4982146;28;20393;-77
2023/12/24 11:18:06;;;;;;;17.33;6.90;;;;;;;;;;4977407;28;20043;-77
2023/12/24 11:20:38;;;;;;;24.98;6.10;;;;;;;;;;4987464;28;20049;-77
2023/12/24 11:23:04;;;;;;;28.17;6.03;;;;;;;;;;4989807;28;20050;-77
2023/12/24 11:25:37;;;;;;;22.55;4.82;;;;;;;;;;5002861;28;20660;-77
2023/12/24 11:28:04;;;;;;;20.92;5.28;;;;;;;;;;4983678;28;20046;-77
2023/12/24 11:30:30;;;;;;;29.65;6.47;;;;;;;;;;4986669;28;20065;-77
2023/12/24 11:32:56;;;;;;;27.85;5.65;;;;;;;;;;4992090;28;20049;-77
2023/12/24 11:35:41;;;;;;;18.33;3.58;;;;;;;;;;4992494;28;20123;-78
2023/12/24 11:38:25;;;;;;;25.70;5.47;;;;;;;;;;4983286;28;20057;-77
2023/12/24 11:41:04;;;;;;;23.83;6.25;;;;;;;;;;4982608;28;20501;-78
2023/12/24 11:43:30;;;;;;;21.02;4.95;;;;;;;;;;4988953;28;20068;-78
2023/12/24 11:45:57;;;;;;;21.85;5.70;;;;;;;;;;5006009;28;20306;-78
2023/12/24 11:48:28;;;;;;;30.67;5.20;;;;;;;;;;4989597;28;20046;-78
2023/12/24 11:51:04;;;;;;;28.13;5.43;;;;;;;;;;5004261;28;20403;-78
2023/12/24 11:53:37;;;;;;;25.20;5.05;;;;;;;;;;5001908;28;20038;-79
2023/12/24 11:56:04;;;;;;;25.38;5.18;;;;;;;;;;5011054;28;20084;-77
2023/12/24 11:58:30;;;;;;;22.10;4.60;;;;;;;;;;5002156;28;20053;-78
2023/12/24 12:00:58;;;;;;;18.30;4.45;;;;;;;;;;5003012;28;20400;-77
2023/12/24 12:03:24;;;;;;;28.13;5.78;;;;;;;;;;5008130;28;20053;-78
2023/12/24 12:05:50;;;;;;;20.80;5.15;;;;;;;;;;5009158;28;20096;-78
2023/12/24 12:08:16;;;;;;;20.25;4.28;;;;;;;;;;4986267;28;20144;-79
2023/12/24 12:10:42;;;;;;;15.65;4.00;;;;;;;;;;4968614;28;20050;-77
2023/12/24 12:13:08;;;;;;;11.90;3.40;;;;;;;;;;4982427;28;20042;-77
2023/12/24 12:15:35;;;;;;;19.33;4.72;;;;;;;;;;4977127;28;20398;-76
2023/12/24 12:18:01;;;;;;;14.57;3.75;;;;;;;;;;4978909;28;20069;-78
2023/12/24 12:20:27;;;;;;;22.52;5.00;;;;;;;;;;4987729;28;20057;-78
2023/12/24 12:22:53;;;;;;;18.55;4.35;;;;;;;;;;5010650;28;20049;-78
2023/12/24 12:25:19;;;;;;;10.65;2.85;;;;;;;;;;5008000;28;20050;-78
2023/12/24 12:27:45;;;;;;;19.42;4.70;;;;;;;;;;4983141;28;20076;-78
2023/12/24 12:30:11;;;;;;;16.30;4.15;;;;;;;;;;4993456;28;20105;-78
2023/12/24 12:32:37;;;;;;;22.42;4.93;;;;;;;;;;4981614;28;20041;-78
2023/12/24 12:35:04;;;;;;;23.30;5.10;;;;;;;;;;4987449;28;20108;-78
2023/12/24 12:37:30;;;;;;;21.73;5.80;;;;;;;;;;4995741;28;20038;-78
2023/12/24 12:39:56;;;;;;;21.40;5.40;;;;;;;;;;4994348;28;20149;-77
2023/12/24 12:42:22;;;;;;;18.98;5.18;;;;;;;;;;4994063;28;20050;-78
2023/12/24 12:44:48;;;;;;;22.58;7.07;;;;;;;;;;5011899;28;20402;-78
2023/12/24 12:47:14;;;;;;;20.95;5.80;;;;;;;;;;4987071;28;20061;-78
2023/12/24 12:49:41;;;;;;;18.17;4.82;;;;;;;;;;4977079;28;20053;-78
2023/12/24 12:52:10;;;;;;;31.52;6.85;;;;;;;;;;5010129;28;20050;-78
2023/12/24 12:54:36;;;;;;;19.42;5.35;;;;;;;;;;4987037;28;20077;-78
2023/12/24 12:57:02;;;;;;;25.83;5.22;;;;;;;;;;5010764;28;20109;-79
2023/12/24 12:59:29;;;;;;;25.02;4.90;;;;;;;;;;4991067;28;20043;-77
2023/12/24 13:01:56;;;;;;;22.02;4.68;;;;;;;;;;4990255;28;20197;-77
2023/12/24 13:04:35;;;;;;;19.50;4.95;;;;;;;;;;4988917;28;20049;-78
2023/12/24 13:07:07;;;;;;;28.38;5.40;;;;;;;;;;4982224;28;20094;-77
2023/12/24 13:09:42;;;;;;;19.97;5.13;;;;;;;;;;4977404;28;20042;-78
2023/12/24 13:12:08;;;;;;;23.30;4.95;;;;;;;;;;4994064;28;20826;-78
2023/12/24 13:14:34;;;;;;;25.60;5.72;;;;;;;;;;4993725;28;20056;-78
2023/12/24 13:17:08;;;;;;;26.17;5.28;;;;;;;;;;4983598;28;20061;-78
2023/12/24 13:19:34;;;;;;;29.50;6.03;;;;;;;;;;4995412;28;20086;-78
2023/12/24 13:22:04;;;;;;;25.73;5.32;;;;;;;;;;4992724;28;20042;-79
2023/12/24 13:24:30;;;;;;;23.65;5.65;;;;;;;;;;4985163;28;20082;-79
2023/12/24 13:26:58;;;;;;;21.92;5.45;;;;;;;;;;4999924;28;20046;-80
2023/12/24 13:29:24;;;;;;;40.22;9.40;;;;;;;;;;4996705;28;20144;-80
2023/12/24 13:31:50;;;;;;;24.38;6.30;;;;;;;;;;4990623;28;20076;-83
2023/12/24 13:34:20;;;;;;;23.73;5.35;;;;;;;;;;4990481;28;20076;-86
2023/12/24 13:36:46;;;;;;;30.17;7.45;;;;;;;;;;4992288;28;20057;-86
2023/12/24 13:39:15;;;;;;;30.58;6.47;;;;;;;;;;4986255;28;20046;-84
2023/12/24 13:41:42;;;;;;;32.92;6.15;;;;;;;;;;5002209;28;20120;-84
2023/12/24 13:44:08;;;;;;;47.53;7.40;;;;;;;;;;5011784;28;20037;-85
2023/12/24 13:46:34;;;;;;;38.20;7.22;;;;;;;;;;4993131;28;20054;-86
2023/12/24 13:49:00;;;;;;;36.25;7.32;;;;;;;;;;4993217;28;20038;-86
2023/12/24 13:51:27;;;;;;;29.42;6.20;;;;;;;;;;4985843;28;20070;-86
2023/12/24 13:53:53;;;;;;;33.58;6.60;;;;;;;;;;4988734;28;20054;-86
2023/12/24 13:56:19;;;;;;;42.88;8.25;;;;;;;;;;4992041;28;20057;-86
2023/12/24 13:58:45;;;;;;;28.70;6.55;;;;;;;;;;4991071;28;20054;-85
2023/12/24 14:01:11;;;;;;;40.50;6.68;;;;;;;;;;4987982;28;20053;-85
2023/12/24 14:03:37;;;;;;;31.20;5.95;;;;;;;;;;5004885;28;20195;-84
2023/12/24 14:06:05;;;;;;;35.78;8.05;;;;;;;;;;4989341;28;20053;-85
2023/12/24 14:08:31;;;;;;;55.20;9.38;;;;;;;;;;4989725;28;20053;-85
2023/12/24 14:10:57;;;;;;;40.97;7.32;;;;;;;;;;4987289;28;20053;-85
2023/12/24 14:13:23;;;;;;;43.58;7.93;;;;;;;;;;4990235;28;20076;-86
2023/12/24 14:15:49;;;;;;;46.22;8.43;;;;;;;;;;5002962;28;20061;-86
2023/12/24 14:18:15;;;;;;;31.08;6.65;;;;;;;;;;5003397;28;20046;-86
2023/12/24 14:20:41;;;;;;;49.88;7.97;;;;;;;;;;4989053;28;20042;-85
2023/12/24 14:23:08;;;;;;;39.67;6.32;;;;;;;;;;4990054;28;20056;-86
2023/12/24 14:25:35;;;;;;;22.80;5.72;;;;;;;;;;4984272;28;20050;-86
2023/12/24 14:28:01;;;;;;;36.35;7.65;;;;;;;;;;4989362;28;20060;-86